createdAt,value
2023-09-20T00:00:44.537Z,3.60
2023-09-20T00:03:14.470Z,4.70
2023-09-20T00:05:48.901Z,5.10
2023-09-20T00:08:19.644Z,4.43
2023-09-20T00:10:49.493Z,4.50
2023-09-20T00:13:21.970Z,4.57
2023-09-20T00:15:56.581Z,3.90
2023-09-20T00:18:26.750Z,4.13
2023-09-20T00:20:56.595Z,4.25
2023-09-20T00:23:26.493Z,3.97
2023-09-20T00:25:56.334Z,4.00
2023-09-20T00:28:29.393Z,4.05
2023-09-20T00:31:00.078Z,3.63
2023-09-20T00:33:31.165Z,3.92
2023-09-20T00:36:01.117Z,4.47
2023-09-20T00:38:31.043Z,4.20
2023-09-20T00:41:01.484Z,4.20
2023-09-20T00:43:34.001Z,3.95
2023-09-20T00:46:13.327Z,4.07
2023-09-20T00:48:45.862Z,3.88
2023-09-20T00:51:16.438Z,4.90
2023-09-20T00:53:46.714Z,4.47
2023-09-20T00:56:16.761Z,4.15
2023-09-20T00:58:51.353Z,4.13
2023-09-20T01:01:21.690Z,3.80
2023-09-20T01:03:53.218Z,4.30
2023-09-20T01:06:28.510Z,4.50
2023-09-20T01:09:00.367Z,3.95
2023-09-20T01:11:31.169Z,4.22
2023-09-20T01:14:04.022Z,3.70
2023-09-20T01:16:34.890Z,4.13
2023-09-20T01:19:07.184Z,3.55
2023-09-20T01:21:45.913Z,3.72
2023-09-20T01:24:18.684Z,3.85
2023-09-20T01:26:52.154Z,3.78
2023-09-20T01:29:22.121Z,4.65
2023-09-20T01:31:52.045Z,4.85
2023-09-20T01:34:22.161Z,4.15
2023-09-20T01:36:54.799Z,3.90
2023-09-20T01:39:27.619Z,4.70
2023-09-20T01:42:00.072Z,3.70
2023-09-20T01:44:30.113Z,4.07
2023-09-20T01:47:03.060Z,4.15
2023-09-20T01:49:34.075Z,4.20
2023-09-20T01:52:08.379Z,4.00
2023-09-20T01:54:38.913Z,4.38
2023-09-20T01:57:09.177Z,3.88
2023-09-20T01:59:39.412Z,4.05
2023-09-20T02:02:09.276Z,3.97
2023-09-20T02:04:39.233Z,3.80
2023-09-20T02:07:12.773Z,4.22
2023-09-20T02:09:42.626Z,4.03
2023-09-20T02:12:12.475Z,4.10
2023-09-20T02:14:42.298Z,4.13
2023-09-20T02:17:12.199Z,4.10
2023-09-20T02:19:42.054Z,4.30
2023-09-20T02:22:15.371Z,3.22
2023-09-20T02:24:46.449Z,3.95
2023-09-20T02:27:16.287Z,4.63
2023-09-20T02:29:46.115Z,4.25
2023-09-20T02:32:17.416Z,3.20
2023-09-20T02:34:47.268Z,3.20
2023-09-20T02:37:20.473Z,3.38
2023-09-20T02:39:50.475Z,4.05
2023-09-20T02:42:25.358Z,3.20
2023-09-20T02:44:55.387Z,4.38
2023-09-20T02:47:27.505Z,3.63
2023-09-20T02:49:57.382Z,3.10
2023-09-20T02:52:31.432Z,3.33
2023-09-20T02:55:02.051Z,2.97
2023-09-20T02:57:32.515Z,3.05
2023-09-20T03:00:02.901Z,3.50
2023-09-20T03:02:34.481Z,3.47
2023-09-20T03:05:04.859Z,3.33
2023-09-20T03:07:37.316Z,2.90
2023-09-20T03:10:08.197Z,3.95
2023-09-20T03:12:40.401Z,3.80
2023-09-20T03:15:11.726Z,3.55
2023-09-20T03:17:44.074Z,3.58
2023-09-20T03:20:17.953Z,2.88
2023-09-20T03:22:52.063Z,4.28
2023-09-20T03:25:23.151Z,3.65
2023-09-20T03:27:54.962Z,3.80
2023-09-20T03:30:24.858Z,3.45
2023-09-20T03:32:58.247Z,3.58
2023-09-20T03:35:35.479Z,3.70
2023-09-20T03:38:10.486Z,3.40
2023-09-20T03:40:42.682Z,3.38
2023-09-20T03:43:14.430Z,4.00
2023-09-20T03:45:47.001Z,3.80
2023-09-20T03:48:17.196Z,4.03
2023-09-20T03:50:47.145Z,2.90
2023-09-20T03:53:19.850Z,3.22
2023-09-20T03:55:50.562Z,3.10
2023-09-20T03:58:21.716Z,3.30
2023-09-20T04:00:52.152Z,3.72
2023-09-20T04:03:22.219Z,3.22
2023-09-20T04:05:58.056Z,3.20
2023-09-20T04:08:31.426Z,3.33
2023-09-20T04:11:01.358Z,3.00
2023-09-20T04:13:35.792Z,3.05
2023-09-20T04:16:07.584Z,2.90
2023-09-20T04:18:37.520Z,3.58
2023-09-20T04:21:07.485Z,4.43
2023-09-20T04:23:40.512Z,3.25
2023-09-20T04:26:11.227Z,3.80
2023-09-20T04:28:41.238Z,3.58
2023-09-20T04:31:11.372Z,4.25
2023-09-20T04:33:41.500Z,3.72
2023-09-20T04:36:11.331Z,3.42
2023-09-20T04:38:44.572Z,3.75
2023-09-20T04:41:14.614Z,3.35
2023-09-20T04:43:44.462Z,3.40
2023-09-20T04:46:14.370Z,2.95
2023-09-20T04:48:45.356Z,3.20
2023-09-20T04:51:16.456Z,2.97
2023-09-20T04:53:50.424Z,3.67
2023-09-20T04:56:20.384Z,3.42
2023-09-20T04:58:51.459Z,3.65
2023-09-20T05:01:21.647Z,3.60
2023-09-20T05:03:52.259Z,2.95
2023-09-20T05:06:23.447Z,4.40
2023-09-20T05:08:55.971Z,3.95
2023-09-20T05:11:31.675Z,3.65
2023-09-20T05:14:02.239Z,3.83
2023-09-20T05:16:32.195Z,3.72
2023-09-20T05:19:02.150Z,3.65
2023-09-20T05:21:32.008Z,3.90
2023-09-20T05:24:05.734Z,3.63
2023-09-20T05:26:35.653Z,3.70
2023-09-20T05:29:05.875Z,3.97
2023-09-20T05:31:38.520Z,3.65
2023-09-20T05:34:08.856Z,4.07
2023-09-20T05:36:39.193Z,3.33
2023-09-20T05:39:13.649Z,3.50
2023-09-20T05:41:43.778Z,3.55
2023-09-20T05:44:14.461Z,3.90
2023-09-20T05:46:44.571Z,3.70
2023-09-20T05:49:14.430Z,3.60
2023-09-20T05:51:45.504Z,3.65
2023-09-20T05:54:20.932Z,3.33
2023-09-20T05:56:51.677Z,3.35
2023-09-20T05:59:21.672Z,3.33
2023-09-20T06:01:54.265Z,3.75
2023-09-20T06:04:24.476Z,3.70
2023-09-20T06:06:55.509Z,3.63
2023-09-20T06:09:28.445Z,4.07
2023-09-20T06:11:58.417Z,3.67
2023-09-20T06:14:29.061Z,3.38
2023-09-20T06:17:01.637Z,3.50
2023-09-20T06:19:32.069Z,3.20
2023-09-20T06:22:01.958Z,3.33
2023-09-20T06:24:34.428Z,3.15
2023-09-20T06:27:05.026Z,3.35
2023-09-20T06:29:34.958Z,3.30
2023-09-20T06:32:06.295Z,3.05
2023-09-20T06:34:45.851Z,3.50
2023-09-20T06:37:23.231Z,3.10
2023-09-20T06:39:57.622Z,2.90
2023-09-20T06:42:31.211Z,3.20
2023-09-20T06:45:01.530Z,3.10
2023-09-20T06:47:31.493Z,3.75
2023-09-20T06:50:04.032Z,3.22
2023-09-20T06:52:34.616Z,3.10
2023-09-20T06:55:11.283Z,2.78
2023-09-20T06:57:41.136Z,3.08
2023-09-20T07:00:18.126Z,2.85
2023-09-20T07:02:48.147Z,3.42
2023-09-20T07:05:18.476Z,3.00
2023-09-20T07:07:49.873Z,3.25
2023-09-20T07:10:22.513Z,2.58
2023-09-20T07:12:55.262Z,2.70
2023-09-20T07:15:26.411Z,2.63
2023-09-20T07:18:09.540Z,2.90
2023-09-20T07:20:40.594Z,3.15
2023-09-20T07:23:14.863Z,3.40
2023-09-20T07:25:51.243Z,2.90
2023-09-20T07:28:21.339Z,2.75
2023-09-20T07:30:51.217Z,2.75
2023-09-20T07:33:26.379Z,2.65
2023-09-20T07:36:00.814Z,2.80
2023-09-20T07:38:37.025Z,2.67
2023-09-20T07:41:15.237Z,3.10
2023-09-20T07:43:46.409Z,2.80
2023-09-20T07:46:25.212Z,3.08
2023-09-20T07:48:57.389Z,2.80
2023-09-20T07:51:38.820Z,3.05
2023-09-20T07:54:15.672Z,2.92
2023-09-20T07:56:53.808Z,2.75
2023-09-20T07:59:29.296Z,2.63
2023-09-20T08:02:04.995Z,2.85
2023-09-20T08:04:38.962Z,3.47
2023-09-20T08:07:21.596Z,3.10
2023-09-20T08:09:54.872Z,2.90
2023-09-20T08:12:29.544Z,2.65
2023-09-20T08:15:01.314Z,3.33
2023-09-20T08:17:45.773Z,2.90
2023-09-20T08:20:22.429Z,3.17
2023-09-20T08:23:07.088Z,3.25
2023-09-20T08:25:49.589Z,2.95
2023-09-20T08:28:37.143Z,2.85
2023-09-20T08:31:42.887Z,2.95
2023-09-20T08:34:26.601Z,3.40
2023-09-20T08:37:14.458Z,3.20
2023-09-20T08:40:00.972Z,3.40
2023-09-20T08:42:43.368Z,3.40
2023-09-20T08:45:29.436Z,3.67
2023-09-20T08:48:13.922Z,3.40
2023-09-20T08:51:02.873Z,3.22
2023-09-20T08:53:45.560Z,3.10
2023-09-20T08:56:32.076Z,2.90
2023-09-20T08:59:18.599Z,3.20
2023-09-20T09:01:51.460Z,3.45
2023-09-20T09:04:24.913Z,3.30
2023-09-20T09:06:58.626Z,3.70
2023-09-20T09:09:30.436Z,3.58
2023-09-20T09:12:00.877Z,3.35
2023-09-20T09:14:32.881Z,3.33
2023-09-20T09:17:11.911Z,3.42
2023-09-20T09:19:47.989Z,3.40
2023-09-20T09:22:20.538Z,3.30
2023-09-20T09:24:52.020Z,3.58
2023-09-20T09:27:22.622Z,3.30
2023-09-20T09:29:52.519Z,3.28
2023-09-20T09:32:25.727Z,3.42
2023-09-20T09:34:56.001Z,3.67
2023-09-20T09:37:37.665Z,4.18
2023-09-20T09:40:10.799Z,3.35
2023-09-20T09:42:40.976Z,3.70
2023-09-20T09:45:14.701Z,3.47
2023-09-20T09:47:47.694Z,3.60
2023-09-20T09:50:21.714Z,4.22
2023-09-20T09:52:53.121Z,3.60
2023-09-20T09:55:24.456Z,3.67
2023-09-20T09:57:54.363Z,4.30
2023-09-20T10:00:27.416Z,4.05
2023-09-20T10:03:11.469Z,4.00
2023-09-20T10:05:44.463Z,4.40
2023-09-20T10:08:20.933Z,4.18
2023-09-20T10:10:52.989Z,3.95
2023-09-20T10:13:22.866Z,4.57
2023-09-20T10:15:55.662Z,4.50
2023-09-20T10:18:34.321Z,3.75
2023-09-20T10:21:20.656Z,4.88
2023-09-20T10:23:51.445Z,4.30
2023-09-20T10:26:23.140Z,4.72
2023-09-20T10:29:02.277Z,4.18
2023-09-20T10:31:43.756Z,5.15
2023-09-20T10:34:21.167Z,4.55
2023-09-20T10:36:57.522Z,3.70
2023-09-20T10:39:31.015Z,4.30
2023-09-20T10:42:10.684Z,4.63
2023-09-20T10:44:43.160Z,4.85
2023-09-20T10:47:15.966Z,4.80
2023-09-20T10:49:53.696Z,5.05
2023-09-20T10:53:03.158Z,5.05
2023-09-20T10:55:43.326Z,4.55
2023-09-20T10:58:19.168Z,4.60
2023-09-20T11:00:53.483Z,4.60
2023-09-20T11:03:25.699Z,5.15
2023-09-20T11:06:02.562Z,4.10
2023-09-20T11:08:33.285Z,4.60
2023-09-20T11:14:00.001Z,5.20
2023-09-20T11:16:32.024Z,5.40
2023-09-20T11:19:05.796Z,5.15
2023-09-20T11:21:40.249Z,4.80
2023-09-20T11:24:13.618Z,4.68
2023-09-20T11:26:46.727Z,4.50
2023-09-20T11:29:18.285Z,4.85
2023-09-20T11:31:52.365Z,4.45
2023-09-20T11:34:49.495Z,5.07
2023-09-20T11:37:23.572Z,5.20
2023-09-20T11:39:55.839Z,5.05
2023-09-20T11:42:30.587Z,5.63
2023-09-20T11:45:22.647Z,5.20
2023-09-20T11:48:10.360Z,5.68
2023-09-20T11:50:50.102Z,5.22
2023-09-20T11:53:25.339Z,5.10
2023-09-20T11:55:59.818Z,5.07
2023-09-20T11:58:41.509Z,4.75
2023-09-20T12:01:11.634Z,4.72
2023-09-20T12:03:42.548Z,4.72
2023-09-20T12:06:12.953Z,4.50
2023-09-20T12:08:51.672Z,4.85
2023-09-20T12:11:23.489Z,4.50
2023-09-20T12:13:53.389Z,4.78
2023-09-20T12:19:08.787Z,3.88
2023-09-20T12:22:04.814Z,4.18
2023-09-20T12:31:30.702Z,4.35
2023-09-20T12:34:02.364Z,4.70
2023-09-20T12:36:41.807Z,4.97
2023-09-20T12:39:14.440Z,4.55
2023-09-20T12:41:44.465Z,4.80
2023-09-20T12:44:14.373Z,4.55
2023-09-20T12:46:48.938Z,4.40
2023-09-20T12:49:18.848Z,4.50
2023-09-20T12:51:49.612Z,3.97
2023-09-20T12:54:22.750Z,4.20
2023-09-20T12:56:52.654Z,4.53
2023-09-20T12:59:28.806Z,4.28
2023-09-20T13:02:04.431Z,4.85
2023-09-20T13:04:37.359Z,4.82
2023-09-20T13:07:09.234Z,4.85
2023-09-20T13:09:39.859Z,4.65
2023-09-20T13:12:12.247Z,4.55
2023-09-20T13:14:44.559Z,4.13
2023-09-20T13:17:24.328Z,5.10
2023-09-20T13:19:55.279Z,5.05
2023-09-20T13:25:24.791Z,4.82
2023-09-20T13:27:57.429Z,4.97
2023-09-20T13:30:28.753Z,4.60
2023-09-20T13:33:01.338Z,4.65
2023-09-20T13:35:36.254Z,4.20
2023-09-20T13:38:16.513Z,4.35
2023-09-20T13:40:48.581Z,3.75
2023-09-20T13:43:25.940Z,3.92
2023-09-20T13:45:58.814Z,3.50
2023-09-20T13:48:31.410Z,3.50
2023-09-20T13:51:04.127Z,3.40
2023-09-20T14:00:23.829Z,3.00
2023-09-20T14:02:53.756Z,3.03
2023-09-20T14:05:28.127Z,3.20
2023-09-20T14:08:03.218Z,3.65
2023-09-20T14:10:35.813Z,2.65
2023-09-20T14:13:05.977Z,3.00
2023-09-20T14:15:36.089Z,3.15
2023-09-20T14:18:06.749Z,3.10
2023-09-20T14:20:44.133Z,2.72
2023-09-20T14:23:16.600Z,3.42
2023-09-20T14:25:51.623Z,2.97
2023-09-20T14:28:27.637Z,3.33
2023-09-20T14:30:58.638Z,3.38
2023-09-20T14:33:33.003Z,2.70
2023-09-20T14:36:10.622Z,2.90
2023-09-20T14:41:11.851Z,3.20
2023-09-20T14:43:42.132Z,2.97
2023-09-20T14:46:13.177Z,3.03
2023-09-20T14:48:45.826Z,3.35
2023-09-20T14:51:20.912Z,2.90
2023-09-20T14:53:54.878Z,2.97
2023-09-20T14:56:30.290Z,2.75
2023-09-20T14:59:03.523Z,2.78
2023-09-20T15:01:34.646Z,3.10
2023-09-20T15:04:06.136Z,3.30
2023-09-20T15:06:48.483Z,3.40
2023-09-20T15:09:18.732Z,2.88
2023-09-20T15:11:49.242Z,2.97
2023-09-20T15:14:20.913Z,2.70
2023-09-20T15:16:50.795Z,3.35
2023-09-20T15:19:23.040Z,3.00
2023-09-20T15:22:09.059Z,3.15
2023-09-20T15:24:39.401Z,2.75
2023-09-20T15:27:11.129Z,3.15
2023-09-20T15:29:43.815Z,2.78
2023-09-20T15:32:16.533Z,3.03
2023-09-20T15:34:48.734Z,2.97
2023-09-20T15:37:29.407Z,2.72
2023-09-20T15:39:59.252Z,2.55
2023-09-20T15:42:36.861Z,2.95
2023-09-20T15:45:07.997Z,3.28
2023-09-20T15:47:41.074Z,2.80
2023-09-20T15:50:17.636Z,2.85
2023-09-20T15:52:50.550Z,2.63
2023-09-20T15:55:30.871Z,2.90
2023-09-20T15:58:00.762Z,3.55
2023-09-20T16:00:33.116Z,3.00
2023-09-20T16:03:04.559Z,2.88
2023-09-20T16:05:36.012Z,2.88
2023-09-20T16:08:08.830Z,2.85
2023-09-20T16:10:38.706Z,2.85
2023-09-20T16:13:10.430Z,3.13
2023-09-20T16:15:44.758Z,3.15
2023-09-20T16:18:17.481Z,3.22
2023-09-20T16:20:50.527Z,3.05
2023-09-20T16:23:32.580Z,3.10
2023-09-20T16:26:03.781Z,3.00
2023-09-20T16:28:33.681Z,2.80
2023-09-20T16:31:03.586Z,2.80
2023-09-20T16:33:33.940Z,3.03
2023-09-20T16:36:04.708Z,2.78
2023-09-20T16:39:02.773Z,2.80
2023-09-20T16:41:41.910Z,3.00
2023-09-20T16:44:17.189Z,3.13
2023-09-20T16:46:48.916Z,3.05
2023-09-20T16:49:26.592Z,2.67
2023-09-20T16:52:04.185Z,2.58
2023-09-20T16:54:41.177Z,2.70
2023-09-20T16:57:11.186Z,2.63
2023-09-20T16:59:44.276Z,2.83
2023-09-20T17:02:16.934Z,2.60
2023-09-20T17:04:48.146Z,2.92
2023-09-20T17:07:22.331Z,2.78
2023-09-20T17:10:00.227Z,2.60
2023-09-20T17:12:30.512Z,2.38
2023-09-20T17:15:01.034Z,2.50
2023-09-20T17:17:32.315Z,2.50
2023-09-20T17:20:02.967Z,2.25
2023-09-20T17:22:42.818Z,2.38
2023-09-20T17:25:20.339Z,2.55
2023-09-20T17:27:51.625Z,2.20
2023-09-20T17:30:24.728Z,2.60
2023-09-20T17:32:54.630Z,2.20
2023-09-20T17:35:27.451Z,2.10
2023-09-20T17:38:08.332Z,2.33
2023-09-20T17:40:56.924Z,2.38
2023-09-20T17:43:28.082Z,2.35
2023-09-20T17:46:01.911Z,2.35
2023-09-20T17:48:45.177Z,2.17
2023-09-20T17:51:15.160Z,1.98
2023-09-20T17:53:49.105Z,2.20
2023-09-20T17:56:27.071Z,1.92
2023-09-20T17:58:58.679Z,2.00
2023-09-20T18:01:28.508Z,2.00
2023-09-20T18:04:01.241Z,1.90
2023-09-20T18:06:36.581Z,1.67
2023-09-20T18:09:10.174Z,1.88
2023-09-20T18:11:46.437Z,1.90
2023-09-20T18:14:38.312Z,1.77
2023-09-20T18:17:09.162Z,1.63
2023-09-20T18:19:39.478Z,1.65
2023-09-20T18:22:11.819Z,2.03
2023-09-20T18:24:46.930Z,1.60
2023-09-20T18:27:23.449Z,1.77
2023-09-20T18:29:53.619Z,1.48
2023-09-20T18:32:24.530Z,2.08
2023-09-20T18:34:54.578Z,1.70
2023-09-20T18:37:27.172Z,1.73
2023-09-20T18:39:57.034Z,1.80
2023-09-20T18:42:30.026Z,1.75
2023-09-20T18:45:00.289Z,1.60
2023-09-20T18:47:42.975Z,1.80
2023-09-20T18:50:17.034Z,1.90
2023-09-20T18:52:48.043Z,1.83
2023-09-20T18:55:18.200Z,1.70
2023-09-20T18:57:58.215Z,1.80
2023-09-20T19:00:44.487Z,1.88
2023-09-20T19:03:19.094Z,1.58
2023-09-20T19:05:52.960Z,1.60
2023-09-20T19:08:25.821Z,1.67
2023-09-20T19:11:00.181Z,1.52
2023-09-20T19:13:34.427Z,1.50
2023-09-20T19:16:04.426Z,1.50
2023-09-20T19:18:34.552Z,1.63
2023-09-20T19:21:16.011Z,1.73
2023-09-20T19:23:48.664Z,1.48
2023-09-20T19:26:18.719Z,1.45
2023-09-20T19:28:52.140Z,1.45
2023-09-20T19:31:22.061Z,1.42
2023-09-20T19:33:53.575Z,1.90
2023-09-20T19:36:28.348Z,1.58
2023-09-20T19:38:59.935Z,1.30
2023-09-20T19:41:32.063Z,1.60
2023-09-20T19:44:04.818Z,1.77
2023-09-20T19:46:34.915Z,1.85
2023-09-20T19:49:04.812Z,1.33
2023-09-20T19:51:34.733Z,1.70
2023-09-20T19:54:06.238Z,1.83
2023-09-20T19:56:38.610Z,1.73
2023-09-20T19:59:12.898Z,1.90
2023-09-20T20:01:45.648Z,1.60
2023-09-20T20:04:19.512Z,2.00
2023-09-20T20:06:55.052Z,1.92
2023-09-20T20:09:24.958Z,1.73
2023-09-20T20:11:55.068Z,1.40
2023-09-20T20:14:27.766Z,1.70
2023-09-20T20:16:57.772Z,1.58
2023-09-20T20:19:27.692Z,1.77
2023-09-20T20:21:58.055Z,1.70
2023-09-20T20:24:38.161Z,1.90
2023-09-20T20:27:13.825Z,1.60
2023-09-20T20:29:50.013Z,1.90
2023-09-20T20:32:20.743Z,1.75
2023-09-20T20:34:50.570Z,1.75
2023-09-20T20:37:21.489Z,1.50
2023-09-20T20:39:52.629Z,1.70
2023-09-20T20:42:23.015Z,1.77
2023-09-20T20:44:56.147Z,1.52
2023-09-20T20:47:28.675Z,1.63
2023-09-20T20:49:58.837Z,1.50
2023-09-20T20:52:29.835Z,1.67
2023-09-20T20:55:04.170Z,1.63
2023-09-20T20:57:35.598Z,1.52
2023-09-20T21:00:24.847Z,1.58
2023-09-20T21:02:56.366Z,1.70
2023-09-20T21:05:32.207Z,1.63
2023-09-20T21:08:06.016Z,1.58
2023-09-20T21:10:38.872Z,1.60
2023-09-20T21:13:11.342Z,1.73
2023-09-20T21:15:55.157Z,1.75
2023-09-20T21:18:25.087Z,1.80
2023-09-20T21:20:57.262Z,1.80
2023-09-20T21:23:27.524Z,1.50
2023-09-20T21:25:58.104Z,2.03
2023-09-20T21:28:28.049Z,1.70
2023-09-20T21:31:00.554Z,1.98
2023-09-20T21:33:31.662Z,1.90
2023-09-20T21:36:01.593Z,1.98
2023-09-20T21:38:32.897Z,2.10
2023-09-20T21:41:02.800Z,2.00
2023-09-20T21:43:34.725Z,1.88
2023-09-20T21:46:07.307Z,1.98
2023-09-20T21:48:37.332Z,1.80
2023-09-20T21:51:08.158Z,1.90
2023-09-20T21:53:39.164Z,2.10
2023-09-20T21:56:09.588Z,2.30
2023-09-20T21:58:43.623Z,2.17
2023-09-20T22:01:16.334Z,2.10
2023-09-20T22:03:46.395Z,2.13
2023-09-20T22:06:16.321Z,2.03
2023-09-20T22:08:47.347Z,2.22
2023-09-20T22:11:29.806Z,2.03
2023-09-20T22:14:04.145Z,1.88
2023-09-20T22:16:41.598Z,1.73
2023-09-20T22:19:15.968Z,2.20
2023-09-20T22:21:50.889Z,2.25
2023-09-20T22:24:25.736Z,1.83
2023-09-20T22:26:55.646Z,1.65
2023-09-20T22:29:25.636Z,2.50
2023-09-20T22:31:59.470Z,2.17
2023-09-20T22:34:41.793Z,2.10
2023-09-20T22:37:18.546Z,2.08
2023-09-20T22:39:55.383Z,2.00
2023-09-20T22:42:28.078Z,2.53
2023-09-20T22:45:03.746Z,2.10
2023-09-20T22:47:44.076Z,2.08
2023-09-20T22:50:18.187Z,2.20
2023-09-20T22:52:53.633Z,2.25
2023-09-20T22:55:30.410Z,2.20
2023-09-20T22:58:02.150Z,1.98
2023-09-20T23:00:34.841Z,1.90
2023-09-20T23:03:11.264Z,2.47
2023-09-20T23:05:42.427Z,2.30
2023-09-20T23:08:23.480Z,1.88
2023-09-20T23:11:01.408Z,2.00
2023-09-20T23:13:41.133Z,2.13
2023-09-20T23:16:17.851Z,2.15
2023-09-20T23:18:57.462Z,1.98
2023-09-20T23:21:28.667Z,2.33
2023-09-20T23:23:59.179Z,2.10
2023-09-20T23:26:29.082Z,1.85
2023-09-20T23:29:01.698Z,2.17
2023-09-20T23:31:38.346Z,2.10
2023-09-20T23:34:12.079Z,2.53
2023-09-20T23:36:42.102Z,2.10
2023-09-20T23:39:15.145Z,2.42
2023-09-20T23:41:50.096Z,2.00
2023-09-20T23:44:25.734Z,2.10
2023-09-20T23:47:02.943Z,2.00
2023-09-20T23:49:42.081Z,2.20
2023-09-20T23:52:12.127Z,2.30
2023-09-20T23:54:45.270Z,2.03
2023-09-20T23:57:18.065Z,1.90
2023-09-20T23:59:52.484Z,1.98
